Time,TemperatureF,DewpointF,PressureIn,WindDirection,WindDirectionDegrees,WindSpeedMPH,WindSpeedGustMPH,Humidity,HourlyPrecipIn,Conditions,Clouds,dailyrainin,SolarRadiationWatts/m^2,SoftwareType,DateUTC
2013-07-31 00:00:00,61.0,53.0,-100.00,SSW,202,1.0,-999.0,73,-99.99,,,-99.99,0.000000,,2013-07-31 05:00:00,
2013-07-31 00:43:00,61.0,53.0,-100.00,SSW,202,1.0,-999.0,73,-99.99,,,-99.99,0.000000,,2013-07-31 05:43:00,
2013-07-31 00:52:00,61.0,53.0,-100.00,SSW,202,1.0,-999.0,73,-99.99,,,-99.99,0.000000,,2013-07-31 05:52:00,
2013-07-31 01:00:00,61.0,54.0,-100.00,South,180,1.0,-999.0,77,-99.99,,,-99.99,0.000000,,2013-07-31 06:00:00,
2013-07-31 01:43:00,61.0,54.0,-100.00,South,180,1.0,-999.0,77,-99.99,,,-99.99,0.000000,,2013-07-31 06:43:00,
2013-07-31 01:53:00,61.0,54.0,-100.00,South,180,1.0,-999.0,77,-99.99,,,-99.99,0.000000,,2013-07-31 06:53:00,
2013-07-31 02:00:00,60.0,56.0,-100.00,SSW,202,0.0,-999.0,85,-99.99,,,-99.99,0.000000,,2013-07-31 07:00:00,
2013-07-31 02:43:00,60.0,56.0,-100.00,SSW,202,0.0,-999.0,85,-99.99,,,-99.99,0.000000,,2013-07-31 07:43:00,
2013-07-31 02:52:00,60.0,56.0,-100.00,SSW,202,0.0,-999.0,85,-99.99,,,-99.99,0.000000,,2013-07-31 07:52:00,
2013-07-31 03:00:00,60.0,57.0,-100.00,SW,225,0.0,-999.0,90,-99.99,,,-99.99,0.000000,,2013-07-31 08:00:00,
2013-07-31 03:42:00,60.0,57.0,-100.00,SW,225,0.0,-999.0,90,-99.99,,,-99.99,0.000000,,2013-07-31 08:42:00,
2013-07-31 03:53:00,60.0,57.0,-100.00,SW,225,0.0,-999.0,90,-99.99,,,-99.99,0.000000,,2013-07-31 08:53:00,
2013-07-31 04:00:00,60.0,58.0,-100.00,SSW,202,0.0,-999.0,92,-99.99,,,-99.99,0.000000,,2013-07-31 09:00:00,
2013-07-31 04:44:00,60.0,58.0,-100.00,SSW,202,0.0,-999.0,92,-99.99,,,-99.99,0.000000,,2013-07-31 09:44:00,
2013-07-31 04:52:00,60.0,58.0,-100.00,SSW,202,0.0,-999.0,92,-99.99,,,-99.99,0.000000,,2013-07-31 09:52:00,
2013-07-31 05:00:00,60.0,58.0,-100.00,SSW,202,1.0,-999.0,94,-99.99,,,-99.99,0.000000,,2013-07-31 10:00:00,
2013-07-31 05:32:00,60.0,58.0,-100.00,SSW,202,1.0,-999.0,94,-99.99,,,-99.99,0.000000,,2013-07-31 10:32:00,
2013-07-31 05:44:00,60.0,58.0,-100.00,SSW,202,1.0,-999.0,94,-99.99,,,-99.99,0.000000,,2013-07-31 10:44:00,
2013-07-31 05:52:00,60.0,58.0,-100.00,SSW,202,1.0,-999.0,94,-99.99,,,-99.99,0.000000,,2013-07-31 10:52:00,
2013-07-31 06:00:00,60.0,59.0,-100.00,SW,225,2.0,-999.0,95,-99.99,,,-99.99,3.480000,,2013-07-31 11:00:00,
2013-07-31 06:33:00,60.0,59.0,-100.00,SW,225,2.0,-999.0,95,-99.99,,,-99.99,3.480000,,2013-07-31 11:33:00,
2013-07-31 06:43:00,60.0,59.0,-100.00,SW,225,2.0,-999.0,95,-99.99,,,-99.99,3.480000,,2013-07-31 11:43:00,
2013-07-31 06:53:00,60.0,59.0,-100.00,SW,225,2.0,-999.0,95,-99.99,,,-99.99,3.480000,,2013-07-31 11:53:00,
2013-07-31 07:00:00,61.0,60.0,-100.00,South,180,1.0,-999.0,95,-99.99,,,-99.99,46.400002,,2013-07-31 12:00:00,
2013-07-31 07:43:00,61.0,60.0,-100.00,South,180,1.0,-999.0,95,-99.99,,,-99.99,46.400002,,2013-07-31 12:43:00,
2013-07-31 07:53:00,61.0,60.0,-100.00,South,180,1.0,-999.0,95,-99.99,,,-99.99,46.400002,,2013-07-31 12:53:00,
2013-07-31 08:00:00,63.0,61.0,-100.00,SW,225,3.0,-999.0,93,-99.99,,,-99.99,80.040001,,2013-07-31 13:00:00,
2013-07-31 08:43:00,63.0,61.0,-100.00,SW,225,3.0,-999.0,93,-99.99,,,-99.99,80.040001,,2013-07-31 13:43:00,
2013-07-31 08:53:00,63.0,61.0,-100.00,SW,225,3.0,-999.0,93,-99.99,,,-99.99,80.040001,,2013-07-31 13:53:00,
2013-07-31 09:00:00,67.0,63.0,-100.00,SW,225,3.0,-999.0,87,-99.99,,,-99.99,286.519989,,2013-07-31 14:00:00,
2013-07-31 09:43:00,67.0,63.0,-100.00,SW,225,3.0,-999.0,87,-99.99,,,-99.99,286.519989,,2013-07-31 14:43:00,
2013-07-31 09:53:00,67.0,63.0,-100.00,SW,225,3.0,-999.0,87,-99.99,,,-99.99,286.519989,,2013-07-31 14:53:00,
2013-07-31 10:00:00,70.0,64.0,-100.00,SW,225,5.0,-999.0,81,-99.99,,,-99.99,393.239990,,2013-07-31 15:00:00,
2013-07-31 10:44:00,70.0,64.0,-100.00,SW,225,5.0,-999.0,81,-99.99,,,-99.99,393.239990,,2013-07-31 15:44:00,
2013-07-31 10:53:00,70.0,64.0,-100.00,SW,225,5.0,-999.0,81,-99.99,,,-99.99,393.239990,,2013-07-31 15:53:00,
2013-07-31 11:00:00,71.0,64.0,-100.00,WSW,247,6.0,-999.0,78,-99.99,,,-99.99,383.959991,,2013-07-31 16:00:00,
2013-07-31 11:44:00,71.0,64.0,-100.00,WSW,247,6.0,-999.0,78,-99.99,,,-99.99,383.959991,,2013-07-31 16:44:00,
2013-07-31 11:52:00,71.0,64.0,-100.00,WSW,247,6.0,-999.0,78,-99.99,,,-99.99,383.959991,,2013-07-31 16:52:00,
2013-07-31 12:00:00,71.0,64.0,-100.00,South,180,3.0,-999.0,79,-99.99,,,-99.99,313.200012,,2013-07-31 17:00:00,
2013-07-31 12:43:00,71.0,64.0,-100.00,South,180,3.0,-999.0,79,-99.99,,,-99.99,313.200012,,2013-07-31 17:43:00,
2013-07-31 12:53:00,71.0,64.0,-100.00,South,180,3.0,-999.0,79,-99.99,,,-99.99,313.200012,,2013-07-31 17:53:00,
2013-07-31 13:00:00,71.0,64.0,-100.00,South,180,4.0,-999.0,79,-99.99,,,-99.99,486.040009,,2013-07-31 18:00:00,
2013-07-31 13:43:00,71.0,64.0,-100.00,South,180,4.0,-999.0,79,-99.99,,,-99.99,486.040009,,2013-07-31 18:43:00,
2013-07-31 13:52:00,71.0,64.0,-100.00,South,180,4.0,-999.0,79,-99.99,,,-99.99,486.040009,,2013-07-31 18:52:00,
2013-07-31 14:00:00,73.0,65.0,-100.00,SSE,157,5.0,-999.0,76,-99.99,,,-99.99,665.840027,,2013-07-31 19:00:00,
2013-07-31 14:33:00,73.0,65.0,-100.00,SSE,157,5.0,-999.0,76,-99.99,,,-99.99,665.840027,,2013-07-31 19:33:00,
2013-07-31 14:43:00,73.0,65.0,-100.00,SSE,157,5.0,-999.0,76,-99.99,,,-99.99,665.840027,,2013-07-31 19:43:00,
2013-07-31 14:53:00,73.0,65.0,-100.00,SSE,157,5.0,-999.0,76,-99.99,,,-99.99,665.840027,,2013-07-31 19:53:00,
2013-07-31 15:00:00,72.0,64.0,-100.00,South,180,7.0,-999.0,76,-99.99,,,-99.99,701.799988,,2013-07-31 20:00:00,
2013-07-31 15:43:00,72.0,64.0,-100.00,South,180,7.0,-999.0,76,-99.99,,,-99.99,701.799988,,2013-07-31 20:43:00,
2013-07-31 15:53:00,72.0,64.0,-100.00,South,180,7.0,-999.0,76,-99.99,,,-99.99,701.799988,,2013-07-31 20:53:00,
2013-07-31 16:00:00,71.0,64.0,-100.00,South,180,6.0,-999.0,78,-99.99,,,-99.99,419.920013,,2013-07-31 21:00:00,
2013-07-31 16:43:00,71.0,64.0,-100.00,South,180,6.0,-999.0,78,-99.99,,,-99.99,419.920013,,2013-07-31 21:43:00,
2013-07-31 16:53:00,71.0,64.0,-100.00,South,180,6.0,-999.0,78,-99.99,,,-99.99,419.920013,,2013-07-31 21:53:00,
2013-07-31 17:00:00,67.0,63.0,-100.00,South,180,3.0,-999.0,85,-99.99,,,-99.99,70.760002,,2013-07-31 22:00:00,
2013-07-31 17:43:00,67.0,63.0,-100.00,South,180,3.0,-999.0,85,-99.99,,,-99.99,70.760002,,2013-07-31 22:43:00,
2013-07-31 17:53:00,67.0,63.0,-100.00,South,180,3.0,-999.0,85,-99.99,,,-99.99,70.760002,,2013-07-31 22:53:00,
2013-07-31 18:00:00,68.0,62.0,-100.00,SW,225,6.0,-999.0,80,-99.99,,,-99.99,100.919998,,2013-07-31 23:00:00,
2013-07-31 18:32:00,68.0,62.0,-100.00,SW,225,6.0,-999.0,80,-99.99,,,-99.99,100.919998,,2013-07-31 23:32:00,
2013-07-31 18:42:00,68.0,62.0,-100.00,SW,225,6.0,-999.0,80,-99.99,,,-99.99,100.919998,,2013-07-31 23:42:00,
2013-07-31 18:53:00,68.0,62.0,-100.00,SW,225,6.0,-999.0,80,-99.99,,,-99.99,100.919998,,2013-07-31 23:53:00,
2013-07-31 19:00:00,70.0,60.0,-100.00,WSW,247,8.0,-999.0,69,-99.99,,,-99.99,153.119995,,2013-08-01 00:00:00,
2013-07-31 19:32:00,70.0,60.0,-100.00,WSW,247,8.0,-999.0,69,-99.99,,,-99.99,153.119995,,2013-08-01 00:32:00,
2013-07-31 19:43:00,70.0,60.0,-100.00,WSW,247,8.0,-999.0,69,-99.99,,,-99.99,153.119995,,2013-08-01 00:43:00,
2013-07-31 19:52:00,70.0,60.0,-100.00,WSW,247,8.0,-999.0,69,-99.99,,,-99.99,153.119995,,2013-08-01 00:52:00,
2013-07-31 20:00:00,69.0,61.0,-100.00,WSW,247,7.0,-999.0,74,-99.99,,,-99.99,89.320000,,2013-08-01 01:00:00,
2013-07-31 20:33:00,69.0,61.0,-100.00,WSW,247,7.0,-999.0,74,-99.99,,,-99.99,89.320000,,2013-08-01 01:33:00,
2013-07-31 20:43:00,69.0,61.0,-100.00,WSW,247,7.0,-999.0,74,-99.99,,,-99.99,89.320000,,2013-08-01 01:43:00,
2013-07-31 20:53:00,69.0,61.0,-100.00,WSW,247,7.0,-999.0,74,-99.99,,,-99.99,89.320000,,2013-08-01 01:53:00,
2013-07-31 21:00:00,67.0,62.0,-100.00,West,270,7.0,-999.0,85,-99.99,,,-99.99,2.320000,,2013-08-01 02:00:00,
2013-07-31 21:32:00,67.0,62.0,-100.00,West,270,7.0,-999.0,85,-99.99,,,-99.99,2.320000,,2013-08-01 02:32:00,
2013-07-31 21:43:00,67.0,62.0,-100.00,West,270,7.0,-999.0,85,-99.99,,,-99.99,2.320000,,2013-08-01 02:43:00,
2013-07-31 21:53:00,67.0,62.0,-100.00,West,270,7.0,-999.0,85,-99.99,,,-99.99,2.320000,,2013-08-01 02:53:00,
2013-07-31 22:00:00,65.0,58.0,-100.00,NW,315,4.0,-999.0,77,-99.99,,,-99.99,0.000000,,2013-08-01 03:00:00,
2013-07-31 22:43:00,65.0,58.0,-100.00,NW,315,4.0,-999.0,77,-99.99,,,-99.99,0.000000,,2013-08-01 03:43:00,
2013-07-31 22:53:00,65.0,58.0,-100.00,NW,315,4.0,-999.0,77,-99.99,,,-99.99,0.000000,,2013-08-01 03:53:00,
2013-07-31 23:00:00,59.0,57.0,-100.00,WNW,292,1.0,-999.0,92,-99.99,,,-99.99,0.000000,,2013-08-01 04:00:00,
2013-07-31 23:43:00,59.0,57.0,-100.00,WNW,292,1.0,-999.0,92,-99.99,,,-99.99,0.000000,,2013-08-01 04:43:00,
2013-07-31 23:53:00,59.0,57.0,-100.00,WNW,292,1.0,-999.0,92,-99.99,,,-99.99,0.000000,,2013-08-01 04:53:00,